createdAt,value
2022-08-05T00:01:35.938Z,9.21
2022-08-05T00:02:39.818Z,9.74
2022-08-05T00:03:45.493Z,9.01
2022-08-05T00:04:52.898Z,8.90
2022-08-05T00:06:05.047Z,8.09
2022-08-05T00:07:26.821Z,9.11
2022-08-05T00:08:08.348Z,8.82
2022-08-05T00:09:15.711Z,9.25
2022-08-05T00:11:48.369Z,9.35
2022-08-05T00:12:56.189Z,9.20
2022-08-05T00:13:45.737Z,9.39
2022-08-05T00:14:51.858Z,9.00
2022-08-05T00:15:58.239Z,8.58
2022-08-05T00:17:03.043Z,9.82
2022-08-05T00:18:06.772Z,8.96
2022-08-05T00:19:10.936Z,8.03
2022-08-05T00:20:21.756Z,8.85
2022-08-05T00:21:24.746Z,9.54
2022-08-05T00:22:30.979Z,8.41
2022-08-05T00:23:44.838Z,10.96
2022-08-05T00:24:42.804Z,10.09
2022-08-05T00:25:46.418Z,7.79
2022-08-05T00:26:51.930Z,11.00
2022-08-05T00:27:55.403Z,9.56
2022-08-05T00:28:59.103Z,9.58
2022-08-05T00:30:03.671Z,10.40
2022-08-05T00:31:08.049Z,8.53
2022-08-05T00:32:15.432Z,11.39
2022-08-05T00:34:53.548Z,9.79
2022-08-05T00:34:56.128Z,7.70
2022-08-05T00:35:32.996Z,8.32
2022-08-05T00:37:12.965Z,8.57
2022-08-05T00:37:52.562Z,9.66
2022-08-05T00:38:52.658Z,8.63
2022-08-05T00:39:59.011Z,10.94
2022-08-05T00:41:02.520Z,8.87
2022-08-05T00:42:06.212Z,10.18
2022-08-05T00:43:11.918Z,9.74
2022-08-05T00:44:16.367Z,10.56
2022-08-05T00:45:28.043Z,9.87
2022-08-05T00:46:42.762Z,11.66
2022-08-05T00:47:56.213Z,10.24
2022-08-05T00:48:50.269Z,8.57
2022-08-05T00:49:51.455Z,10.11
2022-08-05T00:50:54.190Z,9.11
2022-08-05T00:52:01.246Z,9.18
2022-08-05T00:53:05.598Z,9.17
2022-08-05T00:54:15.601Z,9.97
2022-08-05T00:56:27.996Z,8.89
2022-08-05T00:57:38.251Z,8.80
2022-08-05T00:58:44.902Z,10.24
2022-08-05T00:59:49.401Z,9.38
2022-08-05T01:00:57.312Z,12.44
2022-08-05T01:02:01.388Z,9.93
2022-08-05T01:03:09.824Z,9.79
2022-08-05T01:04:13.828Z,9.24
2022-08-05T01:05:19.983Z,9.30
2022-08-05T01:06:32.393Z,8.47
2022-08-05T01:07:31.463Z,8.63
2022-08-05T01:08:43.039Z,10.36
2022-08-05T01:09:42.843Z,8.97
2022-08-05T01:11:08.217Z,10.22
2022-08-05T01:12:18.488Z,8.39
2022-08-05T01:14:40.602Z,10.32
2022-08-05T01:15:55.728Z,9.59
2022-08-05T01:17:08.806Z,9.96
2022-08-05T01:18:16.250Z,10.44
2022-08-05T01:19:36.583Z,9.43
2022-08-05T01:21:07.419Z,9.15
2022-08-05T01:22:27.943Z,9.66
2022-08-05T01:23:39.164Z,10.61
2022-08-05T01:25:11.518Z,9.64
2022-08-05T01:26:38.507Z,9.57
2022-08-05T01:27:55.687Z,10.11
2022-08-05T01:29:06.403Z,13.49
2022-08-05T01:30:18.786Z,9.88
2022-08-05T01:31:25.148Z,9.99
2022-08-05T01:32:33.660Z,10.22
2022-08-05T01:33:49.114Z,10.47
2022-08-05T01:36:12.988Z,9.69
2022-08-05T01:37:25.572Z,9.52
2022-08-05T01:38:31.049Z,11.49
2022-08-05T01:39:47.147Z,10.56
2022-08-05T01:40:48.542Z,10.21
2022-08-05T01:41:55.775Z,9.82
2022-08-05T01:43:06.711Z,10.44
2022-08-05T01:44:15.348Z,10.01
2022-08-05T01:45:21.366Z,8.83
2022-08-05T01:46:42.810Z,9.78
2022-08-05T01:47:43.333Z,13.71
2022-08-05T01:48:51.604Z,10.84
2022-08-05T01:50:02.267Z,9.23
2022-08-05T01:51:08.698Z,11.66
2022-08-05T01:52:17.619Z,9.49
2022-08-05T01:53:22.864Z,10.71
2022-08-05T01:54:34.764Z,9.59
2022-08-05T01:55:45.094Z,11.62
2022-08-05T01:58:11.869Z,10.94
2022-08-05T01:58:13.190Z,9.70
2022-08-05T01:59:08.011Z,10.18
2022-08-05T02:00:13.837Z,10.52
2022-08-05T02:01:24.634Z,9.84
2022-08-05T02:02:31.806Z,10.13
2022-08-05T02:03:40.581Z,11.37
2022-08-05T02:04:49.461Z,9.30
2022-08-05T02:05:59.670Z,9.23
2022-08-05T02:06:59.416Z,11.29
2022-08-05T02:08:04.953Z,10.39
2022-08-05T02:09:09.144Z,10.64
2022-08-05T02:10:17.432Z,10.63
2022-08-05T02:11:23.562Z,10.30
2022-08-05T02:12:35.740Z,10.68
2022-08-05T02:14:05.898Z,9.68
2022-08-05T02:15:19.618Z,9.18
2022-08-05T02:16:24.494Z,10.97
2022-08-05T02:18:31.768Z,10.55
2022-08-05T02:18:47.792Z,10.81
2022-08-05T02:19:58.551Z,10.75
2022-08-05T02:21:22.652Z,8.92
2022-08-05T02:22:34.028Z,9.67
2022-08-05T02:23:42.024Z,11.88
2022-08-05T02:24:51.307Z,10.32
2022-08-05T02:25:55.610Z,10.49
2022-08-05T02:27:10.431Z,10.98
2022-08-05T02:28:12.969Z,10.96
2022-08-05T02:29:24.316Z,10.03
2022-08-05T02:31:57.746Z,9.46
2022-08-05T02:33:03.679Z,10.61
2022-08-05T02:34:14.351Z,9.71
2022-08-05T02:35:28.126Z,9.24
2022-08-05T02:36:31.442Z,10.15
2022-08-05T02:37:35.734Z,10.44
2022-08-05T02:38:40.860Z,11.32
2022-08-05T02:39:47.844Z,11.89
2022-08-05T02:40:56.548Z,12.02
2022-08-05T02:42:02.321Z,11.28
2022-08-05T02:43:07.883Z,10.51
2022-08-05T02:44:14.292Z,11.38
2022-08-05T02:45:18.229Z,11.65
2022-08-05T02:46:27.466Z,9.96
2022-08-05T02:48:06.537Z,10.41
2022-08-05T02:48:41.192Z,9.89
2022-08-05T02:49:49.073Z,9.69
2022-08-05T02:50:53.586Z,11.08
2022-08-05T02:52:03.646Z,9.46
2022-08-05T02:53:07.471Z,10.49
2022-08-05T02:54:36.108Z,11.85
2022-08-05T02:55:52.032Z,10.14
2022-08-05T02:56:23.711Z,10.68
2022-08-05T02:58:12.348Z,11.44
2022-08-05T02:58:35.095Z,9.34
2022-08-05T02:59:50.218Z,11.29
2022-08-05T03:00:46.778Z,11.68
2022-08-05T03:01:59.899Z,9.43
2022-08-05T03:03:10.168Z,11.73
2022-08-05T03:04:18.879Z,11.21
2022-08-05T03:06:55.285Z,9.23
2022-08-05T03:08:00.881Z,9.72
2022-08-05T03:08:54.766Z,10.23
2022-08-05T03:10:02.243Z,9.89
2022-08-05T03:11:54.823Z,10.19
2022-08-05T03:12:33.836Z,9.62
2022-08-05T03:13:51.412Z,11.93
2022-08-05T03:14:54.418Z,11.79
2022-08-05T03:16:02.833Z,10.93
2022-08-05T03:17:11.039Z,10.61
2022-08-05T03:18:17.470Z,9.84
2022-08-05T03:19:33.126Z,10.08
2022-08-05T03:20:26.276Z,11.87
2022-08-05T03:21:33.096Z,12.27
2022-08-05T03:22:36.263Z,11.48
2022-08-05T03:23:43.874Z,10.79
2022-08-05T03:24:52.142Z,10.83
2022-08-05T03:26:04.432Z,10.87
2022-08-05T03:27:06.678Z,14.91
2022-08-05T03:28:18.708Z,10.47
2022-08-05T03:29:24.162Z,10.93
2022-08-05T03:30:36.320Z,11.26
2022-08-05T03:31:57.088Z,10.22
2022-08-05T03:32:46.882Z,11.88
2022-08-05T03:33:54.841Z,13.63
2022-08-05T03:35:01.693Z,11.61
2022-08-05T03:36:12.137Z,12.59
2022-08-05T03:37:13.056Z,14.82
2022-08-05T03:38:23.835Z,12.65
2022-08-05T03:39:26.979Z,13.98
2022-08-05T03:40:32.801Z,11.82
2022-08-05T03:41:45.211Z,11.36
2022-08-05T03:42:52.389Z,11.54
2022-08-05T03:44:08.168Z,12.51
2022-08-05T03:44:57.480Z,10.68
2022-08-05T03:46:08.136Z,15.13
2022-08-05T03:48:22.742Z,15.38
2022-08-05T03:49:51.281Z,12.11
2022-08-05T03:52:37.935Z,13.77
2022-08-05T03:52:38.008Z,13.32
2022-08-05T03:55:52.188Z,11.05
2022-08-05T03:55:52.303Z,11.89
2022-08-05T03:57:20.250Z,11.58
2022-08-05T03:58:29.086Z,13.98
2022-08-05T03:59:54.399Z,14.52
2022-08-05T04:00:51.596Z,12.96
2022-08-05T04:01:58.886Z,12.08
2022-08-05T04:03:04.693Z,13.39
2022-08-05T04:04:10.979Z,14.80
2022-08-05T04:05:20.642Z,11.85
2022-08-05T04:06:28.363Z,12.71
2022-08-05T04:07:34.937Z,16.37
2022-08-05T04:08:41.355Z,12.05
2022-08-05T04:09:53.552Z,13.51
2022-08-05T04:10:55.447Z,13.57
2022-08-05T04:12:00.349Z,12.82
2022-08-05T04:13:09.194Z,13.24
2022-08-05T04:14:17.903Z,14.72
2022-08-05T04:15:19.591Z,14.36
2022-08-05T04:16:32.348Z,13.37
2022-08-05T04:17:36.448Z,16.99
2022-08-05T04:18:42.131Z,14.71
2022-08-05T04:19:54.437Z,15.00
2022-08-05T04:20:56.472Z,16.80
2022-08-05T04:22:09.352Z,14.74
2022-08-05T04:23:07.007Z,13.43
2022-08-05T04:24:19.161Z,16.67
2022-08-05T04:25:17.907Z,15.54
2022-08-05T04:26:23.144Z,14.57
2022-08-05T04:27:41.673Z,13.84
2022-08-05T04:28:31.950Z,15.59
2022-08-05T04:29:37.020Z,15.34
2022-08-05T04:30:40.764Z,16.43
2022-08-05T04:31:46.306Z,16.62
2022-08-05T04:32:54.794Z,16.73
2022-08-05T04:34:19.616Z,15.23
2022-08-05T04:35:06.547Z,16.82
2022-08-05T04:36:38.178Z,15.52
2022-08-05T04:37:20.328Z,16.84
2022-08-05T04:38:39.797Z,17.50
2022-08-05T04:39:35.235Z,13.47
2022-08-05T04:40:44.533Z,17.54
2022-08-05T04:41:55.835Z,15.48
2022-08-05T04:43:01.220Z,17.30
2022-08-05T04:44:09.443Z,16.92
2022-08-05T04:45:14.211Z,16.83
2022-08-05T04:46:27.756Z,16.03
2022-08-05T04:47:23.070Z,17.84
2022-08-05T04:48:28.489Z,17.31
2022-08-05T04:50:01.999Z,17.04
2022-08-05T04:51:01.724Z,18.73
2022-08-05T04:52:00.477Z,18.49
2022-08-05T04:53:04.465Z,17.28
2022-08-05T04:54:08.284Z,17.15
2022-08-05T04:55:15.543Z,16.15
2022-08-05T04:56:35.191Z,16.44
2022-08-05T04:57:29.538Z,17.31
2022-08-05T04:58:34.042Z,18.09
2022-08-05T04:59:39.010Z,17.32
2022-08-05T05:00:43.518Z,18.39
2022-08-05T05:02:35.538Z,18.02
2022-08-05T05:03:00.200Z,18.33
2022-08-05T05:04:11.856Z,18.48
2022-08-05T05:05:26.032Z,18.18
2022-08-05T05:06:40.440Z,18.59
2022-08-05T05:07:32.272Z,17.73
2022-08-05T05:08:38.342Z,17.67
2022-08-05T05:09:42.892Z,18.27
2022-08-05T05:10:56.148Z,16.06
2022-08-05T05:12:00.291Z,15.92
2022-08-05T05:12:58.770Z,15.78
2022-08-05T05:14:08.683Z,17.10
2022-08-05T05:15:17.401Z,18.22
2022-08-05T05:16:21.469Z,19.19
2022-08-05T05:17:56.278Z,15.53
2022-08-05T05:18:37.276Z,19.61
2022-08-05T05:19:47.249Z,15.58
2022-08-05T05:22:23.426Z,18.62
2022-08-05T05:23:19.487Z,17.35
2022-08-05T05:24:18.906Z,17.42
2022-08-05T05:25:32.468Z,18.13
2022-08-05T05:26:32.605Z,17.42
2022-08-05T05:27:44.750Z,17.79
2022-08-05T05:28:44.825Z,20.92
2022-08-05T05:30:03.796Z,18.63
2022-08-05T05:30:52.833Z,19.68
2022-08-05T05:32:04.360Z,18.64
2022-08-05T05:33:16.841Z,17.85
2022-08-05T05:34:20.014Z,15.81
2022-08-05T05:35:25.180Z,16.44
2022-08-05T05:36:29.846Z,17.49
2022-08-05T05:37:37.523Z,17.39
2022-08-05T05:38:39.118Z,19.08
2022-08-05T05:39:44.786Z,18.30
2022-08-05T05:40:51.226Z,17.63
2022-08-05T05:41:55.002Z,17.71
2022-08-05T05:42:59.528Z,17.88
2022-08-05T05:44:05.789Z,18.28
2022-08-05T05:45:11.552Z,19.41
2022-08-05T05:46:19.106Z,18.43
2022-08-05T05:47:30.546Z,17.24
2022-08-05T05:48:32.282Z,17.54
2022-08-05T05:49:39.265Z,19.03
2022-08-05T05:50:44.297Z,18.55
2022-08-05T05:51:49.886Z,19.24
2022-08-05T05:53:02.343Z,20.43
2022-08-05T05:54:07.795Z,19.06
2022-08-05T05:55:15.597Z,21.58
2022-08-05T05:56:26.058Z,23.67
2022-08-05T05:57:26.162Z,24.62
2022-08-05T05:58:32.281Z,23.32
2022-08-05T05:59:40.362Z,22.65
2022-08-05T06:00:41.147Z,20.18
2022-08-05T06:01:57.331Z,20.63
2022-08-05T06:02:54.224Z,21.97
2022-08-05T06:04:01.871Z,25.38
2022-08-05T06:05:03.576Z,22.90
2022-08-05T06:06:11.788Z,21.95
2022-08-05T06:07:15.554Z,21.32
2022-08-05T06:08:31.668Z,22.98
2022-08-05T06:09:24.882Z,20.96
2022-08-05T06:10:37.449Z,20.75
2022-08-05T06:11:40.205Z,21.76
2022-08-05T06:12:47.491Z,18.91
2022-08-05T06:13:54.113Z,19.31
2022-08-05T06:14:55.957Z,19.14
2022-08-05T06:16:29.922Z,18.81
2022-08-05T06:17:22.002Z,18.87
2022-08-05T06:18:13.950Z,20.75
2022-08-05T06:19:26.107Z,18.14
2022-08-05T06:20:28.524Z,19.40
2022-08-05T06:21:36.625Z,18.79
2022-08-05T06:22:40.614Z,19.61
2022-08-05T06:23:46.145Z,19.04
2022-08-05T06:24:51.836Z,18.57
2022-08-05T06:26:13.909Z,19.41
2022-08-05T06:52:36.965Z,17.46
2022-08-05T06:53:40.279Z,19.31
2022-08-05T06:54:44.962Z,20.79
2022-08-05T06:55:50.428Z,19.27
2022-08-05T06:57:56.614Z,19.57
2022-08-05T06:58:29.159Z,20.43
2022-08-05T06:59:11.853Z,19.59
2022-08-05T07:00:22.141Z,21.02
2022-08-05T07:01:32.610Z,21.93
2022-08-05T07:02:33.150Z,21.26
2022-08-05T07:03:38.949Z,19.23
2022-08-05T07:04:45.670Z,22.11
2022-08-05T07:05:50.083Z,19.69
2022-08-05T07:06:54.004Z,19.77
2022-08-05T07:08:00.140Z,20.60
2022-08-05T07:09:12.933Z,22.71
2022-08-05T07:10:17.172Z,20.47
2022-08-05T07:11:22.635Z,21.07
2022-08-05T07:12:52.239Z,20.96
2022-08-05T07:14:20.526Z,20.73
2022-08-05T07:16:01.044Z,22.33
2022-08-05T07:17:56.912Z,21.76
2022-08-05T07:18:09.306Z,21.87
2022-08-05T07:19:04.267Z,20.39
2022-08-05T07:20:32.225Z,21.24
2022-08-05T07:21:16.072Z,20.71
2022-08-05T07:22:28.558Z,20.87
2022-08-05T07:23:30.961Z,21.11
2022-08-05T07:24:35.167Z,21.29
2022-08-05T07:25:56.239Z,20.54
2022-08-05T07:26:51.540Z,22.02
2022-08-05T07:27:57.993Z,19.73
2022-08-05T07:29:01.376Z,18.61
2022-08-05T07:30:24.134Z,18.27
2022-08-05T07:31:13.102Z,19.38
2022-08-05T07:32:18.641Z,19.60
2022-08-05T07:33:36.854Z,21.14
2022-08-05T07:34:28.894Z,21.84
2022-08-05T07:35:55.884Z,22.56
2022-08-05T07:36:39.527Z,21.14
2022-08-05T07:37:43.720Z,17.41
2022-08-05T07:38:49.859Z,19.89
2022-08-05T07:40:26.810Z,20.73
2022-08-05T07:42:08.235Z,19.66
2022-08-05T07:42:31.497Z,19.42
2022-08-05T07:43:29.304Z,19.27
2022-08-05T07:44:33.854Z,17.49
2022-08-05T07:45:58.087Z,17.55
2022-08-05T07:46:48.239Z,18.53
2022-08-05T07:47:49.284Z,18.30
2022-08-05T07:50:11.098Z,18.97
2022-08-05T07:51:23.839Z,18.93
2022-08-05T07:52:23.957Z,19.81
2022-08-05T07:53:37.022Z,19.23
2022-08-05T07:54:41.311Z,19.40
2022-08-05T07:55:53.607Z,19.49
2022-08-05T07:57:02.672Z,20.10
2022-08-05T07:58:02.488Z,18.76
2022-08-05T07:58:59.555Z,18.39
2022-08-05T08:00:06.070Z,17.04
2022-08-05T08:01:14.548Z,16.23
2022-08-05T08:03:13.559Z,17.15
2022-08-05T08:04:56.642Z,17.72
2022-08-05T08:06:00.216Z,17.64
2022-08-05T08:07:05.374Z,17.18
2022-08-05T08:08:12.221Z,17.48
2022-08-05T08:09:14.199Z,16.61
2022-08-05T08:10:22.103Z,16.76
2022-08-05T08:11:27.733Z,16.08
2022-08-05T08:12:49.332Z,17.79
2022-08-05T08:13:42.998Z,15.08
2022-08-05T08:14:46.702Z,18.44
2022-08-05T08:16:49.794Z,15.89
2022-08-05T08:16:55.305Z,19.36
2022-08-05T08:18:01.951Z,14.92
2022-08-05T08:19:06.226Z,16.38
2022-08-05T08:20:43.785Z,16.89
2022-08-05T08:21:17.743Z,15.06
2022-08-05T08:22:25.268Z,16.89
2022-08-05T08:24:03.054Z,15.80
2022-08-05T08:24:51.616Z,15.72
2022-08-05T08:26:00.032Z,14.12
2022-08-05T08:26:56.663Z,16.14
2022-08-05T08:28:01.201Z,17.32
2022-08-05T08:29:29.304Z,13.58
2022-08-05T08:30:29.500Z,14.07
2022-08-05T08:32:29.415Z,13.39
2022-08-05T08:33:37.678Z,13.13
2022-08-05T08:34:39.491Z,14.09
2022-08-05T08:35:52.316Z,14.56
2022-08-05T08:36:54.981Z,15.91
2022-08-05T08:38:02.323Z,12.99
2022-08-05T08:39:04.739Z,13.54
2022-08-05T08:40:12.254Z,13.62
2022-08-05T08:41:26.217Z,14.99
2022-08-05T08:42:50.507Z,14.62
2022-08-05T08:45:19.601Z,13.96
2022-08-05T08:45:22.939Z,13.70
2022-08-05T08:46:09.936Z,13.34
2022-08-05T08:47:47.724Z,13.46
2022-08-05T08:48:42.939Z,13.86
2022-08-05T08:50:12.806Z,16.61
2022-08-05T08:51:07.650Z,14.18
2022-08-05T08:52:03.389Z,12.34
2022-08-05T08:53:12.335Z,14.20
2022-08-05T08:54:14.009Z,12.42
2022-08-05T08:56:02.163Z,12.33
2022-08-05T08:56:27.099Z,13.77
2022-08-05T08:57:42.267Z,13.65
2022-08-05T08:58:44.679Z,13.56
2022-08-05T08:59:48.934Z,13.31
2022-08-05T09:01:01.438Z,12.77
2022-08-05T09:02:16.658Z,13.70
2022-08-05T09:03:22.273Z,12.54
2022-08-05T09:04:30.696Z,14.50
2022-08-05T09:05:38.965Z,14.24
2022-08-05T09:06:40.829Z,13.21
2022-08-05T09:07:57.113Z,12.13
2022-08-05T09:08:50.326Z,14.55
2022-08-05T09:09:55.825Z,14.43
2022-08-05T09:11:00.426Z,13.83
2022-08-05T09:12:20.798Z,13.53
2022-08-05T09:13:20.436Z,12.86
2022-08-05T09:14:59.129Z,14.72
2022-08-05T09:15:37.137Z,14.31
2022-08-05T09:16:40.404Z,15.33
2022-08-05T09:17:49.869Z,14.54
2022-08-05T09:18:51.641Z,14.72
2022-08-05T09:20:02.420Z,15.51
2022-08-05T09:21:11.729Z,15.89
2022-08-05T09:22:30.917Z,15.51
2022-08-05T09:23:23.559Z,14.13
2022-08-05T09:24:28.912Z,16.02
2022-08-05T09:26:01.373Z,14.54
2022-08-05T09:28:05.812Z,16.63
2022-08-05T09:29:01.346Z,14.38
2022-08-05T09:30:08.037Z,15.82
2022-08-05T09:32:40.285Z,16.04
2022-08-05T09:32:40.811Z,16.17
2022-08-05T09:33:56.351Z,15.40
2022-08-05T09:35:02.593Z,16.09
2022-08-05T09:36:16.279Z,16.94
2022-08-05T09:38:12.793Z,15.77
2022-08-05T09:38:29.632Z,15.16
2022-08-05T09:39:44.817Z,15.88
2022-08-05T09:40:52.585Z,13.94
2022-08-05T09:42:02.012Z,15.66
2022-08-05T09:43:08.565Z,17.15
2022-08-05T09:44:22.548Z,15.62
2022-08-05T09:46:07.421Z,14.17
2022-08-05T09:46:51.780Z,16.26
2022-08-05T09:47:57.524Z,15.35
2022-08-05T09:49:07.247Z,16.14
2022-08-05T09:50:12.139Z,13.71
2022-08-05T09:51:17.388Z,14.46
2022-08-05T09:52:35.231Z,13.93
2022-08-05T09:53:54.455Z,14.80
2022-08-05T09:55:57.696Z,15.32
2022-08-05T09:56:12.838Z,14.02
2022-08-05T09:57:23.386Z,17.27
2022-08-05T09:58:23.527Z,14.28
2022-08-05T09:59:27.885Z,14.35
2022-08-05T10:00:38.623Z,13.75
2022-08-05T10:01:45.831Z,13.64
2022-08-05T10:02:53.932Z,13.78
2022-08-05T10:04:10.488Z,13.19
2022-08-05T10:05:19.855Z,13.41
2022-08-05T10:06:25.716Z,14.55
2022-08-05T10:08:50.328Z,13.75
2022-08-05T10:10:13.972Z,13.78
2022-08-05T10:11:08.221Z,15.01
2022-08-05T10:12:30.707Z,16.69
2022-08-05T10:13:47.175Z,15.91
2022-08-05T10:14:39.746Z,16.38
2022-08-05T10:15:45.900Z,14.19
2022-08-05T10:16:53.004Z,14.28
2022-08-05T10:18:04.824Z,16.60
2022-08-05T10:19:11.819Z,15.16
2022-08-05T10:20:21.017Z,14.47
2022-08-05T10:21:25.271Z,14.23
2022-08-05T10:22:37.714Z,13.37
2022-08-05T10:23:59.706Z,15.47
2022-08-05T10:24:45.929Z,15.96
2022-08-05T10:25:53.476Z,14.41
2022-08-05T10:27:01.635Z,14.10
2022-08-05T10:28:17.092Z,14.90
2022-08-05T10:29:24.146Z,16.91
2022-08-05T10:32:46.780Z,14.60
2022-08-05T10:32:53.125Z,15.67
2022-08-05T10:32:55.165Z,14.80
2022-08-05T10:33:52.192Z,15.02
2022-08-05T10:34:53.757Z,15.65
2022-08-05T10:36:00.262Z,15.36
2022-08-05T10:37:06.791Z,15.56
2022-08-05T10:38:14.955Z,15.02
2022-08-05T10:40:03.254Z,17.36
2022-08-05T10:40:33.935Z,15.95
2022-08-05T10:41:46.401Z,15.73
2022-08-05T10:42:55.037Z,14.69
2022-08-05T10:44:04.738Z,14.74
2022-08-05T10:45:23.897Z,13.95
2022-08-05T10:46:23.848Z,16.08
2022-08-05T10:48:57.123Z,14.17
2022-08-05T10:50:20.421Z,14.76
2022-08-05T10:51:28.320Z,17.43
2022-08-05T10:52:50.093Z,14.09
2022-08-05T10:54:00.996Z,15.71
2022-08-05T10:55:08.085Z,15.17
2022-08-05T10:56:25.416Z,14.56
2022-08-05T10:57:32.213Z,14.54
2022-08-05T10:58:48.671Z,14.67
2022-08-05T11:00:02.570Z,15.51
2022-08-05T11:00:55.186Z,16.79
2022-08-05T11:02:37.556Z,14.29
2022-08-05T11:03:24.291Z,18.39
2022-08-05T11:04:30.713Z,15.72
2022-08-05T11:05:35.091Z,13.75
2022-08-05T11:07:00.626Z,15.01
2022-08-05T11:08:36.648Z,16.22
2022-08-05T11:10:35.506Z,15.48
2022-08-05T11:11:52.976Z,15.87
2022-08-05T11:12:50.292Z,14.45
2022-08-05T11:13:54.824Z,14.50
2022-08-05T11:15:20.692Z,14.42
2022-08-05T11:16:33.819Z,14.55
2022-08-05T11:17:57.745Z,14.83
2022-08-05T11:18:47.015Z,14.71
2022-08-05T11:20:11.435Z,15.06
2022-08-05T11:20:54.108Z,14.57
2022-08-05T11:21:59.655Z,14.25
2022-08-05T11:23:25.238Z,14.18
2022-08-05T11:24:32.082Z,15.04
2022-08-05T11:26:05.015Z,14.21
2022-08-05T11:26:49.628Z,15.52
2022-08-05T11:28:00.638Z,14.12
2022-08-05T11:29:02.422Z,14.48
2022-08-05T11:30:03.899Z,14.19
2022-08-05T11:31:11.512Z,15.24
2022-08-05T11:32:30.250Z,15.16
2022-08-05T11:33:46.667Z,15.56
2022-08-05T11:34:52.215Z,14.28
2022-08-05T11:36:10.053Z,13.84
2022-08-05T11:38:29.002Z,14.27
2022-08-05T11:38:51.755Z,14.49
2022-08-05T11:39:55.317Z,14.33
2022-08-05T11:41:36.839Z,15.04
2022-08-05T11:42:09.204Z,13.38
2022-08-05T11:44:05.172Z,15.94
2022-08-05T11:44:53.345Z,13.44
2022-08-05T11:46:27.562Z,13.01
2022-08-05T11:47:10.148Z,13.43
2022-08-05T11:48:07.514Z,13.32
2022-08-05T11:49:15.397Z,13.51
2022-08-05T11:50:20.521Z,13.67
2022-08-05T11:51:44.150Z,13.72
2022-08-05T11:52:31.445Z,13.94
2022-08-05T11:53:41.028Z,13.45
2022-08-05T11:54:43.599Z,13.72
2022-08-05T11:55:59.863Z,13.15
2022-08-05T11:57:08.047Z,14.47
2022-08-05T11:58:12.033Z,13.53
2022-08-05T11:59:25.391Z,13.31
2022-08-05T12:00:38.273Z,13.79
2022-08-05T12:01:56.828Z,13.27
2022-08-05T12:03:29.681Z,13.19
2022-08-05T12:04:26.809Z,12.04
2022-08-05T12:05:36.247Z,13.05
2022-08-05T12:06:41.138Z,12.71
2022-08-05T12:08:07.945Z,12.83
2022-08-05T12:08:58.840Z,12.78
2022-08-05T12:10:09.430Z,13.48
2022-08-05T12:11:20.327Z,13.27
2022-08-05T12:12:29.950Z,12.82
2022-08-05T12:13:48.422Z,12.83
2022-08-05T12:14:47.403Z,13.64
2022-08-05T12:15:55.856Z,13.60
2022-08-05T12:16:58.693Z,12.84
2022-08-05T12:18:10.727Z,13.00
2022-08-05T12:20:26.939Z,14.41
2022-08-05T12:20:33.684Z,13.27
2022-08-05T12:21:49.164Z,12.71
2022-08-05T12:22:52.827Z,13.01
2022-08-05T12:24:10.190Z,11.96
2022-08-05T12:25:14.297Z,14.36
2022-08-05T12:26:20.807Z,12.97
2022-08-05T12:27:33.016Z,13.17
2022-08-05T12:28:38.669Z,12.41
2022-08-05T12:29:43.732Z,11.87
2022-08-05T12:30:50.479Z,11.91
2022-08-05T12:31:57.374Z,12.34
2022-08-05T12:33:07.383Z,11.85
2022-08-05T12:34:07.827Z,12.20
2022-08-05T12:35:16.863Z,12.23
2022-08-05T12:36:24.223Z,12.32
2022-08-05T12:37:30.409Z,11.61
2022-08-05T12:38:38.020Z,11.38
2022-08-05T12:39:42.547Z,12.34
2022-08-05T12:40:49.340Z,12.26
2022-08-05T12:42:06.000Z,12.31
2022-08-05T12:43:12.379Z,12.48
2022-08-05T12:44:32.634Z,11.28
2022-08-05T12:45:42.587Z,11.77
2022-08-05T12:46:41.789Z,11.09
2022-08-05T12:48:17.060Z,11.38
2022-08-05T12:49:16.398Z,12.31
2022-08-05T12:50:25.249Z,12.18
2022-08-05T12:52:14.064Z,11.30
2022-08-05T12:52:42.308Z,11.52
2022-08-05T12:53:55.829Z,12.68
2022-08-05T12:54:55.793Z,12.09
2022-08-05T12:55:59.337Z,11.73
2022-08-05T12:57:09.241Z,11.29
2022-08-05T12:58:48.634Z,11.19
2022-08-05T13:00:08.265Z,11.71
2022-08-05T13:02:02.433Z,11.87
2022-08-05T13:02:07.391Z,11.22
2022-08-05T13:03:14.284Z,11.49
2022-08-05T13:04:21.026Z,11.53
2022-08-05T13:05:24.263Z,12.31
2022-08-05T13:06:28.638Z,11.73
2022-08-05T13:07:59.220Z,11.66
2022-08-05T13:08:50.869Z,12.54
2022-08-05T13:10:01.079Z,11.56
2022-08-05T13:11:04.782Z,11.77
2022-08-05T13:12:17.144Z,11.14
2022-08-05T13:14:06.643Z,11.48
2022-08-05T13:14:36.183Z,11.34
2022-08-05T13:41:25.775Z,12.03
2022-08-05T13:42:29.630Z,11.03
2022-08-05T13:43:44.303Z,11.19
2022-08-05T13:44:45.018Z,11.44
2022-08-05T13:45:46.270Z,10.87
2022-08-05T13:47:01.878Z,10.84
2022-08-05T13:48:09.464Z,10.96
2022-08-05T13:49:03.027Z,11.05
2022-08-05T13:50:12.437Z,11.11
2022-08-05T13:51:15.434Z,10.96
2022-08-05T13:52:29.140Z,10.09
2022-08-05T13:53:35.256Z,9.61
2022-08-05T13:54:43.175Z,10.18
2022-08-05T13:56:00.256Z,9.76
2022-08-05T13:56:57.651Z,10.29
2022-08-05T13:58:02.211Z,10.21
2022-08-05T13:59:06.006Z,10.14
2022-08-05T14:00:11.778Z,10.68
2022-08-05T14:01:17.593Z,10.97
2022-08-05T14:02:21.307Z,10.28
2022-08-05T14:03:32.127Z,10.24
2022-08-05T14:05:00.877Z,10.37
2022-08-05T14:06:25.399Z,9.54
2022-08-05T14:07:26.398Z,9.56
2022-08-05T14:08:27.917Z,9.18
2022-08-05T14:09:25.695Z,9.67
2022-08-05T14:12:03.937Z,9.85
2022-08-05T14:12:48.717Z,9.89
2022-08-05T14:13:54.991Z,9.61
2022-08-05T14:14:56.606Z,9.72
2022-08-05T14:16:04.985Z,9.37
2022-08-05T14:17:04.814Z,10.55
2022-08-05T14:18:14.842Z,10.04
2022-08-05T14:19:19.845Z,9.01
2022-08-05T14:20:28.555Z,9.74
2022-08-05T14:22:09.759Z,9.12
2022-08-05T14:22:50.227Z,9.41
2022-08-05T14:23:50.624Z,9.44
2022-08-05T14:24:57.539Z,8.50
2022-08-05T14:26:04.862Z,8.62
2022-08-05T14:27:17.526Z,8.58
2022-08-05T14:28:27.103Z,9.26
2022-08-05T14:29:22.256Z,9.57
2022-08-05T14:30:29.891Z,9.38
2022-08-05T14:32:03.704Z,9.88
2022-08-05T14:32:46.017Z,9.63
2022-08-05T14:33:59.498Z,9.34
2022-08-05T14:36:09.329Z,10.61
2022-08-05T14:37:15.855Z,9.82
2022-08-05T14:38:33.365Z,10.01
2022-08-05T14:39:27.594Z,9.09
2022-08-05T14:40:32.915Z,9.56
2022-08-05T14:41:48.482Z,10.24
2022-08-05T14:42:48.336Z,9.21
2022-08-05T14:44:00.145Z,8.95
2022-08-05T14:45:02.222Z,8.97
2022-08-05T14:46:04.947Z,10.65
2022-08-05T14:47:11.388Z,8.90
2022-08-05T14:48:33.814Z,9.13
2022-08-05T14:49:21.661Z,10.04
2022-08-05T14:50:26.334Z,9.46
2022-08-05T14:51:34.698Z,9.94
2022-08-05T14:52:52.444Z,9.10
2022-08-05T14:53:44.561Z,10.16
2022-08-05T14:54:53.339Z,9.75
2022-08-05T14:55:59.609Z,9.27
2022-08-05T14:57:05.402Z,9.91
2022-08-05T14:58:10.986Z,8.78
2022-08-05T14:59:15.432Z,9.65
2022-08-05T15:00:19.990Z,10.01
2022-08-05T15:01:48.322Z,9.39
2022-08-05T15:02:29.993Z,9.05
2022-08-05T15:03:39.074Z,9.33
2022-08-05T15:04:47.919Z,9.65
2022-08-05T15:06:08.031Z,9.56
2022-08-05T15:07:02.451Z,9.80
2022-08-05T15:08:15.888Z,9.74
2022-08-05T15:09:12.907Z,10.16
2022-08-05T15:10:28.931Z,10.05
2022-08-05T15:11:52.693Z,9.90
2022-08-05T15:13:00.299Z,8.53
2022-08-05T15:13:50.321Z,8.98
2022-08-05T15:14:54.102Z,6.71
2022-08-05T15:15:59.321Z,9.88
2022-08-05T15:17:03.704Z,7.43
2022-08-05T15:18:07.965Z,7.41
2022-08-05T15:19:14.472Z,6.72
2022-08-05T15:20:23.711Z,6.54
2022-08-05T15:21:27.828Z,10.73
2022-08-05T15:22:36.962Z,7.41
2022-08-05T15:23:40.949Z,10.69
2022-08-05T15:24:45.223Z,11.96
2022-08-05T15:25:51.945Z,16.09
2022-08-05T15:26:56.015Z,9.04
2022-08-05T15:28:08.605Z,9.13
2022-08-05T15:29:14.042Z,8.21
2022-08-05T15:30:19.166Z,10.39
2022-08-05T15:31:25.137Z,7.37
2022-08-05T15:32:30.872Z,8.16
2022-08-05T15:34:05.686Z,12.17
2022-08-05T15:34:40.056Z,11.89
2022-08-05T15:35:45.239Z,7.44
2022-08-05T15:36:49.542Z,7.94
2022-08-05T15:38:33.086Z,8.02
2022-08-05T15:40:41.511Z,10.60
2022-08-05T15:41:00.019Z,8.69
2022-08-05T15:41:22.732Z,9.19
2022-08-05T15:42:53.489Z,9.60
2022-08-05T15:43:30.136Z,9.39
2022-08-05T15:44:39.252Z,11.30
2022-08-05T15:45:46.254Z,10.37
2022-08-05T15:46:50.772Z,10.99
2022-08-05T15:47:57.671Z,10.55
2022-08-05T15:49:01.349Z,11.49
2022-08-05T15:50:08.612Z,10.52
2022-08-05T15:51:15.574Z,9.48
2022-08-05T15:52:51.978Z,10.72
2022-08-05T15:53:27.405Z,9.59
2022-08-05T15:54:35.105Z,12.16